Time;durP1;ratioP1;P1;durP2;ratioP2;P2;SDS_P1;SDS_P2;PMS_P1;PMS_P2;Temp;Humidity;BMP_temperature;BMP_pressure;BME280_temperature;BME280_humidity;BME280_pressure;Samples;Min_cycle;Max_cycle;Signal;HPM_P1;HPM_P2
2022/12/16 00:00:18;;;;;;;29.33;15.23;;;;;;;3.88;89.99;99107.31;4482255;32;34209;-71
2022/12/16 00:02:45;;;;;;;26.87;13.30;;;;;;;4.19;88.98;99097.97;4488502;31;33631;-71
2022/12/16 00:05:13;;;;;;;28.62;14.60;;;;;;;4.18;89.28;99099.66;4478775;32;33746;-71
2022/12/16 00:07:41;;;;;;;24.15;12.73;;;;;;;4.23;88.21;99087.09;4477958;32;33155;-71
2022/12/16 00:10:08;;;;;;;29.37;15.15;;;;;;;4.16;88.86;99091.00;4485764;32;33308;-71
2022/12/16 00:12:36;;;;;;;26.45;12.73;;;;;;;4.21;88.46;99093.81;4485831;31;33565;-71
2022/12/16 00:15:04;;;;;;;29.35;13.75;;;;;;;4.06;88.91;99081.91;4485779;32;36317;-71
2022/12/16 00:17:31;;;;;;;22.30;11.25;;;;;;;4.19;88.92;99085.16;4486036;32;35215;-71
2022/12/16 00:19:59;;;;;;;27.05;11.85;;;;;;;4.12;88.63;99082.25;4485654;32;33759;-71
2022/12/16 00:22:26;;;;;;;23.23;12.15;;;;;;;3.79;90.30;99072.59;4484605;32;34620;-71
2022/12/16 00:24:54;;;;;;;23.90;10.48;;;;;;;4.19;89.70;99082.59;4484522;32;32292;-71
2022/12/16 00:27:21;;;;;;;21.75;10.43;;;;;;;4.38;88.93;99088.00;4488849;31;34713;-71
2022/12/16 00:29:49;;;;;;;23.33;11.93;;;;;;;4.12;89.34;99079.69;4485625;32;34194;-71
2022/12/16 00:32:16;;;;;;;17.65;9.65;;;;;;;4.23;89.50;99066.59;4486062;32;33317;-71
2022/12/16 00:34:44;;;;;;;19.52;9.88;;;;;;;3.90;90.90;99068.97;4481654;32;34601;-71
2022/12/16 00:37:12;;;;;;;18.80;8.80;;;;;;;4.12;89.60;99069.44;4485632;32;33477;-71
2022/12/16 00:39:39;;;;;;;16.80;9.85;;;;;;;4.28;89.10;99070.31;4484364;32;33229;-71
2022/12/16 00:42:07;;;;;;;19.70;9.75;;;;;;;4.19;89.48;99057.88;4485521;32;33811;-71
2022/12/16 00:44:35;;;;;;;15.82;8.38;;;;;;;4.27;89.08;99068.56;4485387;32;33822;-71
2022/12/16 00:47:05;;;;;;;14.38;7.95;;;;;;;4.56;88.73;99066.75;4490456;31;33077;-71
2022/12/16 00:49:35;;;;;;;14.48;8.00;;;;;;;4.33;88.85;99066.34;4490278;31;33200;-71
2022/12/16 00:52:03;;;;;;;16.08;7.75;;;;;;;4.40;89.11;99060.75;4485712;32;33723;-71
2022/12/16 00:54:30;;;;;;;13.88;7.35;;;;;;;4.50;88.45;99057.94;4485461;32;33906;-71
2022/12/16 00:56:58;;;;;;;14.55;7.03;;;;;;;4.51;88.16;99054.56;4485247;32;33907;-71
2022/12/16 00:59:25;;;;;;;14.13;7.03;;;;;;;4.34;89.09;99055.28;4485708;32;33989;-71
2022/12/16 01:01:53;;;;;;;14.60;7.18;;;;;;;4.55;88.23;99045.38;4485353;32;34541;-71
2022/12/16 01:04:21;;;;;;;13.77;6.82;;;;;;;4.61;88.61;99049.97;4485355;32;34691;-72
2022/12/16 01:06:49;;;;;;;12.82;6.68;;;;;;;4.64;87.59;99042.44;4485551;31;34078;-71
2022/12/16 01:09:16;;;;;;;14.10;7.85;;;;;;;4.46;88.63;99030.38;4495007;31;33444;-71
2022/12/16 01:11:44;;;;;;;13.48;7.00;;;;;;;4.58;88.15;99019.00;4484361;32;34683;-71
2022/12/16 01:14:11;;;;;;;12.13;6.60;;;;;;;4.38;89.26;99016.19;4466833;32;32190;-71
2022/12/16 01:16:39;;;;;;;14.00;7.10;;;;;;;4.47;90.63;99000.47;4497684;31;34108;-71
2022/12/16 01:19:07;;;;;;;13.40;7.05;;;;;;;4.20;90.76;98997.22;4498803;31;33467;-71
2022/12/16 01:21:34;;;;;;;13.65;7.22;;;;;;;4.20;91.48;98992.09;4492623;31;33925;-71
2022/12/16 01:24:02;;;;;;;13.77;6.00;;;;;;;4.06;92.13;98992.19;4489215;31;34121;-71
2022/12/16 01:26:30;;;;;;;11.25;6.47;;;;;;;4.34;91.11;98973.25;4486947;31;33717;-71
2022/12/16 01:28:58;;;;;;;11.65;5.82;;;;;;;4.04;92.08;98977.53;4498571;31;33456;-71
2022/12/16 01:31:25;;;;;;;12.10;6.07;;;;;;;3.74;94.57;98970.72;4498761;31;34403;-71
2022/12/16 01:33:53;;;;;;;12.90;6.47;;;;;;;3.92;93.97;98973.47;4499356;31;33664;-71
2022/12/16 01:36:22;;;;;;;12.13;6.28;;;;;;;4.00;93.74;98961.09;4487564;31;34539;-71
2022/12/16 01:38:49;;;;;;;11.75;5.90;;;;;;;3.80;95.01;98946.25;4495593;31;33607;-71
2022/12/16 01:41:17;;;;;;;9.85;5.62;;;;;;;4.18;92.79;98947.56;4484870;32;33269;-71
2022/12/16 01:43:45;;;;;;;10.40;6.28;;;;;;;4.14;92.97;98934.56;4483982;32;33817;-71
2022/12/16 01:46:15;;;;;;;8.57;5.53;;;;;;;4.70;90.86;98937.59;4485142;32;34351;-71
2022/12/16 01:48:48;;;;;;;9.70;5.37;;;;;;;4.37;92.70;98932.41;4482095;31;32030;-71
2022/12/16 01:51:33;;;;;;;10.60;5.65;;;;;;;4.21;93.40;98925.56;4475799;32;34142;-71
2022/12/16 01:54:09;;;;;;;10.75;5.53;;;;;;;4.28;92.54;98912.25;4475974;31;34766;-71
2022/12/16 01:56:40;;;;;;;9.57;5.50;;;;;;;4.05;94.13;98908.41;4484496;31;34216;-71
2022/12/16 01:59:08;;;;;;;11.27;6.03;;;;;;;4.16;93.18;98903.03;4478685;31;34268;-71
2022/12/16 02:01:35;;;;;;;10.73;5.97;;;;;;;4.20;93.64;98892.12;4476970;32;33903;-71
2022/12/16 02:04:03;;;;;;;9.80;5.97;;;;;;;4.05;93.42;98879.34;4486601;31;34209;-71
2022/12/16 02:06:32;;;;;;;10.25;5.37;;;;;;;3.96;94.33;98872.06;4493713;31;33824;-71
2022/12/16 02:09:02;;;;;;;10.95;5.93;;;;;;;3.85;95.98;98852.63;4491472;31;33291;-71
2022/12/16 02:11:41;;;;;;;9.65;5.85;;;;;;;4.01;94.80;98847.53;4484628;31;36141;-71
2022/12/16 02:14:28;;;;;;;10.30;6.07;;;;;;;4.12;94.10;98827.66;4488615;31;33740;-71
2022/12/16 02:17:01;;;;;;;9.23;5.55;;;;;;;4.30;93.34;98818.38;4487098;31;34051;-71
2022/12/16 02:19:43;;;;;;;8.27;5.05;;;;;;;3.97;95.61;98807.19;4491096;31;33958;-71
2022/12/16 02:22:45;;;;;;;9.57;5.30;;;;;;;3.92;95.62;98793.22;4488455;31;33922;-71
2022/12/16 02:25:33;;;;;;;11.43;5.90;;;;;;;4.24;94.89;98777.03;4472887;31;34642;-71
2022/12/16 02:28:03;;;;;;;10.85;5.70;;;;;;;4.23;94.79;98774.37;4470621;31;34430;-71
2022/12/16 02:30:51;;;;;;;9.77;5.65;;;;;;;4.24;94.97;98765.91;4477743;31;32656;-71
2022/12/16 02:33:30;;;;;;;10.18;4.85;;;;;;;4.61;93.87;98768.69;4495739;31;34732;-71
2022/12/16 02:36:25;;;;;;;11.00;6.00;;;;;;;5.10;91.78;98770.31;4489445;31;33933;-71
2022/12/16 02:39:03;;;;;;;12.02;7.00;;;;;;;4.67;93.03;98765.56;4488240;31;34486;-71
2022/12/16 02:41:34;;;;;;;9.98;5.43;;;;;;;4.36;93.51;98779.34;4482868;31;34825;-71
2022/12/16 02:44:05;;;;;;;9.85;5.85;;;;;;;4.21;96.08;98786.22;4471936;31;33270;-71
2022/12/16 02:46:41;;;;;;;10.90;6.80;;;;;;;4.08;96.71;98793.28;4482943;32;34541;-71
2022/12/16 02:49:29;;;;;;;11.38;6.45;;;;;;;4.52;94.76;98794.75;4489034;31;34703;-71
2022/12/16 02:51:58;;;;;;;11.90;7.32;;;;;;;4.70;93.52;98809.34;4495500;31;33110;-71
2022/12/16 02:54:26;;;;;;;11.27;6.85;;;;;;;4.41;93.60;98811.25;4486078;31;33596;-71
2022/12/16 02:57:16;;;;;;;11.00;6.68;;;;;;;4.43;93.27;98814.78;4479221;31;33785;-71
2022/12/16 03:00:04;;;;;;;11.95;7.12;;;;;;;4.92;91.32;98809.66;4480668;31;34287;-71
2022/12/16 03:02:35;;;;;;;10.68;6.55;;;;;;;4.55;92.16;98803.41;4477936;31;33134;-71
2022/12/16 03:05:11;;;;;;;12.43;6.90;;;;;;;4.22;93.56;98788.00;4484892;32;33978;-71
2022/12/16 03:07:40;;;;;;;13.98;8.52;;;;;;;4.40;92.96;98783.84;4483424;32;34507;-71
2022/12/16 03:10:12;;;;;;;12.07;7.32;;;;;;;4.28;94.01;98762.69;4483738;31;34576;-71
2022/12/16 03:12:41;;;;;;;13.70;7.68;;;;;;;4.06;94.65;98751.31;4470263;32;34033;-71
2022/12/16 03:15:09;;;;;;;9.95;7.22;;;;;;;4.25;94.82;98752.25;4483432;32;33574;-71
2022/12/16 03:17:37;;;;;;;12.48;7.50;;;;;;;4.37;93.25;98758.06;4484612;31;33791;-71
2022/12/16 03:20:11;;;;;;;12.27;7.10;;;;;;;3.87;96.30;98722.94;4483995;31;34371;-71
2022/12/16 03:22:41;;;;;;;13.60;8.38;;;;;;;3.79;97.86;98696.03;4478763;32;34105;-71
2022/12/16 03:25:10;;;;;;;13.43;7.22;;;;;;;4.11;96.22;98731.94;4467826;32;33167;-71
2022/12/16 03:27:55;;;;;;;11.10;6.65;;;;;;;4.59;93.73;98743.78;4477346;32;34736;-71
2022/12/16 03:30:35;;;;;;;11.38;6.32;;;;;;;4.35;93.92;98736.59;4485245;31;34447;-71
2022/12/16 03:33:08;;;;;;;10.70;6.35;;;;;;;4.45;94.02;98726.00;4470281;32;33602;-71
2022/12/16 03:35:39;;;;;;;10.68;6.80;;;;;;;4.27;94.60;98725.06;4483253;32;33767;-71
2022/12/16 03:38:09;;;;;;;11.43;6.75;;;;;;;4.31;94.25;98726.97;4476335;31;33476;-71
2022/12/16 03:40:37;;;;;;;12.18;7.32;;;;;;;4.10;95.07;98748.09;4484955;31;33527;-71
2022/12/16 03:43:05;;;;;;;11.30;7.37;;;;;;;4.05;95.80;98734.16;4485267;31;33521;-71
2022/12/16 03:45:38;;;;;;;10.02;6.40;;;;;;;3.95;96.42;98734.47;4480598;31;33878;-71
2022/12/16 03:48:07;;;;;;;10.90;6.60;;;;;;;4.41;95.38;98734.34;4468107;32;32373;-71
2022/12/16 03:50:36;;;;;;;10.43;6.40;;;;;;;4.06;96.34;98735.94;4490541;31;33971;-71
2022/12/16 03:53:04;;;;;;;9.95;6.37;;;;;;;4.11;95.87;98736.16;4498708;31;33490;-71
2022/12/16 03:55:32;;;;;;;10.68;6.22;;;;;;;4.35;94.51;98734.03;4496227;31;34322;-71
2022/12/16 03:57:59;;;;;;;9.55;6.03;;;;;;;4.09;95.82;98730.94;4490094;31;34354;-71
2022/12/16 04:00:27;;;;;;;12.65;6.20;;;;;;;4.42;94.97;98722.38;4486464;31;34350;-71
2022/12/16 04:02:54;;;;;;;10.10;6.18;;;;;;;4.48;95.26;98715.91;4496258;31;33511;-71
2022/12/16 04:05:22;;;;;;;9.18;5.93;;;;;;;4.48;93.75;98704.75;4485729;32;33907;-71
2022/12/16 04:07:49;;;;;;;9.23;5.75;;;;;;;4.31;95.05;98697.09;4488370;31;34541;-71
2022/12/16 04:24:17;;;;;;;8.57;4.93;;;;;;;4.11;96.46;98690.03;4495828;31;33977;-71
2022/12/16 04:24:18;;;;;;;10.80;6.28;;;;;;;4.63;94.33;98669.63;4475653;31;33232;-71
